sensor_id;sensor_type;location;lat;lon;timestamp;P1;durP1;ratioP1;P2;durP2;ratioP2
26780;SDS011;14366;49.184;8.054;2023-08-24T00:02:33;5.20;;;2.72;;
26780;SDS011;14366;49.184;8.054;2023-08-24T00:08:08;3.77;;;2.97;;
26780;SDS011;14366;49.184;8.054;2023-08-24T00:13:43;4.45;;;2.95;;
26780;SDS011;14366;49.184;8.054;2023-08-24T00:19:19;4.53;;;2.90;;
26780;SDS011;14366;49.184;8.054;2023-08-24T00:24:51;6.70;;;3.10;;
26780;SDS011;14366;49.184;8.054;2023-08-24T00:35:28;4.62;;;2.78;;
26780;SDS011;14366;49.184;8.054;2023-08-24T00:46:04;4.04;;;3.02;;
26780;SDS011;14366;49.184;8.054;2023-08-24T00:56:44;4.40;;;3.00;;
26780;SDS011;14366;49.184;8.054;2023-08-24T01:02:18;3.83;;;2.97;;
26780;SDS011;14366;49.184;8.054;2023-08-24T01:07:50;3.50;;;2.55;;
26780;SDS011;14366;49.184;8.054;2023-08-24T01:13:29;4.12;;;3.08;;
26780;SDS011;14366;49.184;8.054;2023-08-24T01:19:02;4.23;;;2.90;;
26780;SDS011;14366;49.184;8.054;2023-08-24T01:24:38;5.53;;;3.03;;
26780;SDS011;14366;49.184;8.054;2023-08-24T01:30:15;3.80;;;2.68;;
26780;SDS011;14366;49.184;8.054;2023-08-24T01:35:49;4.03;;;2.93;;
26780;SDS011;14366;49.184;8.054;2023-08-24T01:41:24;4.60;;;2.90;;
26780;SDS011;14366;49.184;8.054;2023-08-24T01:47:02;5.70;;;3.20;;
26780;SDS011;14366;49.184;8.054;2023-08-24T01:52:31;6.16;;;2.92;;
26780;SDS011;14366;49.184;8.054;2023-08-24T01:58:06;5.82;;;3.00;;
26780;SDS011;14366;49.184;8.054;2023-08-24T02:03:43;5.40;;;2.90;;
26780;SDS011;14366;49.184;8.054;2023-08-24T02:09:17;5.85;;;3.30;;
26780;SDS011;14366;49.184;8.054;2023-08-24T02:14:37;3.72;;;2.92;;
26780;SDS011;14366;49.184;8.054;2023-08-24T02:19:59;4.70;;;3.28;;
26780;SDS011;14366;49.184;8.054;2023-08-24T02:25:33;5.78;;;2.87;;
26780;SDS011;14366;49.184;8.054;2023-08-24T02:30:50;4.70;;;2.90;;
26780;SDS011;14366;49.184;8.054;2023-08-24T02:41:14;4.93;;;3.58;;
26780;SDS011;14366;49.184;8.054;2023-08-24T02:46:48;5.30;;;3.05;;
26780;SDS011;14366;49.184;8.054;2023-08-24T02:52:23;4.93;;;2.95;;
26780;SDS011;14366;49.184;8.054;2023-08-24T02:58:00;4.95;;;3.20;;
26780;SDS011;14366;49.184;8.054;2023-08-24T03:03:32;6.40;;;3.65;;
26780;SDS011;14366;49.184;8.054;2023-08-24T03:09:04;12.57;;;4.07;;
26780;SDS011;14366;49.184;8.054;2023-08-24T03:14:26;7.68;;;3.86;;
26780;SDS011;14366;49.184;8.054;2023-08-24T03:25:03;6.20;;;3.62;;
26780;SDS011;14366;49.184;8.054;2023-08-24T03:35:41;6.75;;;3.50;;
26780;SDS011;14366;49.184;8.054;2023-08-24T03:46:20;6.95;;;3.60;;
26780;SDS011;14366;49.184;8.054;2023-08-24T03:51:53;4.45;;;3.60;;
26780;SDS011;14366;49.184;8.054;2023-08-24T04:02:28;7.03;;;3.50;;
26780;SDS011;14366;49.184;8.054;2023-08-24T04:12:53;6.30;;;3.50;;
26780;SDS011;14366;49.184;8.054;2023-08-24T04:23:30;6.47;;;3.20;;
26780;SDS011;14366;49.184;8.054;2023-08-24T04:33:56;4.87;;;3.42;;
26780;SDS011;14366;49.184;8.054;2023-08-24T04:44:32;3.80;;;3.10;;
26780;SDS011;14366;49.184;8.054;2023-08-24T04:50:06;5.95;;;3.37;;
26780;SDS011;14366;49.184;8.054;2023-08-24T04:55:41;8.73;;;3.55;;
26780;SDS011;14366;49.184;8.054;2023-08-24T05:06:18;4.45;;;3.12;;
26780;SDS011;14366;49.184;8.054;2023-08-24T05:16:55;4.37;;;3.50;;
26780;SDS011;14366;49.184;8.054;2023-08-24T05:27:21;6.45;;;3.55;;
26780;SDS011;14366;49.184;8.054;2023-08-24T05:32:54;5.85;;;3.70;;
26780;SDS011;14366;49.184;8.054;2023-08-24T05:38:29;5.45;;;3.55;;
26780;SDS011;14366;49.184;8.054;2023-08-24T05:43:51;5.07;;;3.30;;
26780;SDS011;14366;49.184;8.054;2023-08-24T05:49:21;5.10;;;3.35;;
26780;SDS011;14366;49.184;8.054;2023-08-24T05:59:58;4.23;;;2.83;;
26780;SDS011;14366;49.184;8.054;2023-08-24T06:10:34;3.90;;;2.90;;
26780;SDS011;14366;49.184;8.054;2023-08-24T06:16:07;3.57;;;2.70;;
26780;SDS011;14366;49.184;8.054;2023-08-24T06:21:42;3.67;;;2.97;;
26780;SDS011;14366;49.184;8.054;2023-08-24T06:27:17;4.95;;;2.97;;
26780;SDS011;14366;49.184;8.054;2023-08-24T06:32:38;5.00;;;2.70;;
26780;SDS011;14366;49.184;8.054;2023-08-24T06:38:13;4.32;;;3.20;;
26780;SDS011;14366;49.184;8.054;2023-08-24T06:43:48;3.10;;;2.80;;
26780;SDS011;14366;49.184;8.054;2023-08-24T06:49:09;6.30;;;2.97;;
26780;SDS011;14366;49.184;8.054;2023-08-24T06:54:42;8.70;;;2.97;;
26780;SDS011;14366;49.184;8.054;2023-08-24T07:00:00;5.25;;;2.90;;
26780;SDS011;14366;49.184;8.054;2023-08-24T07:05:18;5.80;;;2.80;;
26780;SDS011;14366;49.184;8.054;2023-08-24T07:10:53;3.70;;;2.60;;
26780;SDS011;14366;49.184;8.054;2023-08-24T07:16:13;5.10;;;2.80;;
26780;SDS011;14366;49.184;8.054;2023-08-24T07:21:35;7.90;;;2.90;;
26780;SDS011;14366;49.184;8.054;2023-08-24T07:27:10;4.95;;;3.20;;
26780;SDS011;14366;49.184;8.054;2023-08-24T07:32:45;5.75;;;3.20;;
26780;SDS011;14366;49.184;8.054;2023-08-24T07:38:07;6.15;;;3.50;;
26780;SDS011;14366;49.184;8.054;2023-08-24T07:43:39;4.55;;;3.70;;
26780;SDS011;14366;49.184;8.054;2023-08-24T07:48:59;6.00;;;3.60;;
26780;SDS011;14366;49.184;8.054;2023-08-24T07:54:32;5.12;;;3.17;;
26780;SDS011;14366;49.184;8.054;2023-08-24T08:00:05;5.82;;;3.50;;
26780;SDS011;14366;49.184;8.054;2023-08-24T08:10:43;8.70;;;3.60;;
26780;SDS011;14366;49.184;8.054;2023-08-24T08:21:36;5.90;;;3.20;;
26780;SDS011;14366;49.184;8.054;2023-08-24T08:26:55;5.90;;;3.28;;
26780;SDS011;14366;49.184;8.054;2023-08-24T08:37:30;6.28;;;3.10;;
26780;SDS011;14366;49.184;8.054;2023-08-24T08:43:05;4.95;;;2.90;;
26780;SDS011;14366;49.184;8.054;2023-08-24T08:48:36;6.37;;;3.15;;
26780;SDS011;14366;49.184;8.054;2023-08-24T08:59:14;4.70;;;2.60;;
26780;SDS011;14366;49.184;8.054;2023-08-24T09:09:48;4.55;;;2.80;;
26780;SDS011;14366;49.184;8.054;2023-08-24T09:15:11;11.95;;;3.40;;
26780;SDS011;14366;49.184;8.054;2023-08-24T09:20:43;5.18;;;3.05;;
26780;SDS011;14366;49.184;8.054;2023-08-24T09:26:15;5.25;;;2.92;;
26780;SDS011;14366;49.184;8.054;2023-08-24T09:31:52;3.40;;;2.60;;
26780;SDS011;14366;49.184;8.054;2023-08-24T09:37:24;5.68;;;3.10;;
26780;SDS011;14366;49.184;8.054;2023-08-24T09:43:01;6.90;;;3.10;;
26780;SDS011;14366;49.184;8.054;2023-08-24T09:48:33;5.72;;;3.28;;
26780;SDS011;14366;49.184;8.054;2023-08-24T09:59:12;5.67;;;3.10;;
26780;SDS011;14366;49.184;8.054;2023-08-24T10:04:45;5.22;;;3.05;;
26780;SDS011;14366;49.184;8.054;2023-08-24T10:10:20;4.30;;;3.08;;
26780;SDS011;14366;49.184;8.054;2023-08-24T10:15:54;6.70;;;3.00;;
26780;SDS011;14366;49.184;8.054;2023-08-24T10:21:31;6.65;;;3.85;;
26780;SDS011;14366;49.184;8.054;2023-08-24T10:27:03;6.43;;;3.37;;
26780;SDS011;14366;49.184;8.054;2023-08-24T10:32:35;4.32;;;3.10;;
26780;SDS011;14366;49.184;8.054;2023-08-24T10:38:08;6.30;;;3.15;;
26780;SDS011;14366;49.184;8.054;2023-08-24T10:43:40;11.44;;;4.46;;
26780;SDS011;14366;49.184;8.054;2023-08-24T10:49:12;8.02;;;3.33;;
26780;SDS011;14366;49.184;8.054;2023-08-24T10:54:45;9.55;;;3.22;;
26780;SDS011;14366;49.184;8.054;2023-08-24T11:00:32;3.60;;;3.15;;
26780;SDS011;14366;49.184;8.054;2023-08-24T11:06:17;8.50;;;3.63;;
26780;SDS011;14366;49.184;8.054;2023-08-24T11:11:57;5.95;;;3.33;;
26780;SDS011;14366;49.184;8.054;2023-08-24T11:17:29;6.45;;;3.60;;
26780;SDS011;14366;49.184;8.054;2023-08-24T11:22:58;7.57;;;3.22;;
26780;SDS011;14366;49.184;8.054;2023-08-24T11:28:31;6.43;;;3.50;;
26780;SDS011;14366;49.184;8.054;2023-08-24T11:34:03;4.40;;;3.17;;
26780;SDS011;14366;49.184;8.054;2023-08-24T11:39:38;5.35;;;3.20;;
26780;SDS011;14366;49.184;8.054;2023-08-24T11:44:59;4.10;;;3.25;;
26780;SDS011;14366;49.184;8.054;2023-08-24T11:50:32;9.43;;;3.17;;
26780;SDS011;14366;49.184;8.054;2023-08-24T11:56:07;6.20;;;3.28;;
26780;SDS011;14366;49.184;8.054;2023-08-24T12:01:40;3.66;;;2.92;;
26780;SDS011;14366;49.184;8.054;2023-08-24T12:07:12;5.53;;;3.20;;
26780;SDS011;14366;49.184;8.054;2023-08-24T12:12:47;6.03;;;2.90;;
26780;SDS011;14366;49.184;8.054;2023-08-24T12:18:20;7.28;;;3.10;;
26780;SDS011;14366;49.184;8.054;2023-08-24T12:23:55;7.97;;;2.95;;
26780;SDS011;14366;49.184;8.054;2023-08-24T12:29:27;5.77;;;3.23;;
26780;SDS011;14366;49.184;8.054;2023-08-24T12:34:44;5.00;;;2.80;;
26780;SDS011;14366;49.184;8.054;2023-08-24T12:40:17;4.35;;;3.22;;
26780;SDS011;14366;49.184;8.054;2023-08-24T12:45:37;7.53;;;3.25;;
26780;SDS011;14366;49.184;8.054;2023-08-24T12:56:17;4.85;;;2.90;;
26780;SDS011;14366;49.184;8.054;2023-08-24T13:01:49;6.00;;;3.00;;
26780;SDS011;14366;49.184;8.054;2023-08-24T13:07:24;7.75;;;3.58;;
26780;SDS011;14366;49.184;8.054;2023-08-24T13:12:42;6.92;;;3.26;;
26780;SDS011;14366;49.184;8.054;2023-08-24T13:23:22;5.60;;;3.27;;
26780;SDS011;14366;49.184;8.054;2023-08-24T13:33:45;5.35;;;3.22;;
26780;SDS011;14366;49.184;8.054;2023-08-24T13:44:18;8.93;;;3.20;;
26780;SDS011;14366;49.184;8.054;2023-08-24T13:49:39;5.80;;;3.95;;
26780;SDS011;14366;49.184;8.054;2023-08-24T13:55:08;7.64;;;3.78;;
26780;SDS011;14366;49.184;8.054;2023-08-24T14:00:29;14.68;;;4.45;;
26780;SDS011;14366;49.184;8.054;2023-08-24T14:05:48;10.00;;;4.85;;
26780;SDS011;14366;49.184;8.054;2023-08-24T14:11:19;7.15;;;4.35;;
26780;SDS011;14366;49.184;8.054;2023-08-24T14:16:39;8.43;;;4.97;;
26780;SDS011;14366;49.184;8.054;2023-08-24T14:21:58;5.85;;;4.57;;
26780;SDS011;14366;49.184;8.054;2023-08-24T14:32:49;8.75;;;4.95;;
26780;SDS011;14366;49.184;8.054;2023-08-24T14:38:11;5.74;;;4.62;;
26780;SDS011;14366;49.184;8.054;2023-08-24T14:43:42;7.05;;;4.85;;
26780;SDS011;14366;49.184;8.054;2023-08-24T14:49:17;6.10;;;4.30;;
26780;SDS011;14366;49.184;8.054;2023-08-24T14:54:54;6.93;;;4.27;;
26780;SDS011;14366;49.184;8.054;2023-08-24T15:00:26;7.60;;;4.25;;
26780;SDS011;14366;49.184;8.054;2023-08-24T15:05:59;7.85;;;4.15;;
26780;SDS011;14366;49.184;8.054;2023-08-24T15:11:35;8.17;;;4.40;;
26780;SDS011;14366;49.184;8.054;2023-08-24T15:17:06;9.45;;;4.50;;
26780;SDS011;14366;49.184;8.054;2023-08-24T15:22:23;10.75;;;5.10;;
26780;SDS011;14366;49.184;8.054;2023-08-24T15:27:45;6.03;;;4.80;;
26780;SDS011;14366;49.184;8.054;2023-08-24T15:33:17;9.90;;;4.40;;
26780;SDS011;14366;49.184;8.054;2023-08-24T15:38:48;6.82;;;3.80;;
26780;SDS011;14366;49.184;8.054;2023-08-24T15:44:25;6.40;;;4.40;;
26780;SDS011;14366;49.184;8.054;2023-08-24T15:49:54;6.58;;;4.88;;
26780;SDS011;14366;49.184;8.054;2023-08-24T15:55:28;6.26;;;4.16;;
26780;SDS011;14366;49.184;8.054;2023-08-24T16:06:05;7.00;;;4.78;;
26780;SDS011;14366;49.184;8.054;2023-08-24T16:16:39;7.95;;;5.28;;
26780;SDS011;14366;49.184;8.054;2023-08-24T16:21:58;8.10;;;4.67;;
26780;SDS011;14366;49.184;8.054;2023-08-24T16:27:33;5.40;;;4.67;;
26780;SDS011;14366;49.184;8.054;2023-08-24T16:33:04;6.32;;;4.57;;
26780;SDS011;14366;49.184;8.054;2023-08-24T16:38:26;6.53;;;4.75;;
26780;SDS011;14366;49.184;8.054;2023-08-24T16:44:01;5.47;;;4.78;;
26780;SDS011;14366;49.184;8.054;2023-08-24T16:49:34;6.28;;;4.50;;
26780;SDS011;14366;49.184;8.054;2023-08-24T16:55:10;5.97;;;4.68;;
26780;SDS011;14366;49.184;8.054;2023-08-24T17:00:42;9.05;;;6.47;;
26780;SDS011;14366;49.184;8.054;2023-08-24T17:06:14;10.95;;;5.37;;
26780;SDS011;14366;49.184;8.054;2023-08-24T17:16:53;6.93;;;4.95;;
26780;SDS011;14366;49.184;8.054;2023-08-24T17:27:32;8.77;;;6.10;;
26780;SDS011;14366;49.184;8.054;2023-08-24T17:32:53;10.15;;;6.20;;
26780;SDS011;14366;49.184;8.054;2023-08-24T17:38:26;6.20;;;5.22;;
26780;SDS011;14366;49.184;8.054;2023-08-24T17:44:01;6.35;;;5.75;;
26780;SDS011;14366;49.184;8.054;2023-08-24T17:49:34;6.40;;;5.15;;
26780;SDS011;14366;49.184;8.054;2023-08-24T17:55:09;6.50;;;4.90;;
26780;SDS011;14366;49.184;8.054;2023-08-24T18:00:44;6.15;;;5.00;;
26780;SDS011;14366;49.184;8.054;2023-08-24T18:06:20;8.73;;;4.83;;
26780;SDS011;14366;49.184;8.054;2023-08-24T18:11:55;7.20;;;5.00;;
26780;SDS011;14366;49.184;8.054;2023-08-24T18:22:16;7.32;;;5.32;;
26780;SDS011;14366;49.184;8.054;2023-08-24T18:27:49;8.80;;;5.10;;
26780;SDS011;14366;49.184;8.054;2023-08-24T18:33:24;6.93;;;5.00;;
26780;SDS011;14366;49.184;8.054;2023-08-24T18:38:57;7.62;;;5.30;;
26780;SDS011;14366;49.184;8.054;2023-08-24T18:49:34;8.02;;;5.35;;
26780;SDS011;14366;49.184;8.054;2023-08-24T18:54:53;6.68;;;4.52;;
26780;SDS011;14366;49.184;8.054;2023-08-24T19:00:26;7.05;;;5.40;;
26780;SDS011;14366;49.184;8.054;2023-08-24T19:05:47;7.97;;;5.47;;
26780;SDS011;14366;49.184;8.054;2023-08-24T19:11:19;6.45;;;5.32;;
26780;SDS011;14366;49.184;8.054;2023-08-24T19:16:53;8.05;;;5.75;;
26780;SDS011;14366;49.184;8.054;2023-08-24T19:22:13;9.95;;;5.80;;
26780;SDS011;14366;49.184;8.054;2023-08-24T19:27:49;9.90;;;5.20;;
26780;SDS011;14366;49.184;8.054;2023-08-24T19:33:24;5.87;;;5.05;;
26780;SDS011;14366;49.184;8.054;2023-08-24T19:38:59;8.40;;;5.45;;
26780;SDS011;14366;49.184;8.054;2023-08-24T19:44:20;6.30;;;5.40;;
26780;SDS011;14366;49.184;8.054;2023-08-24T19:49:52;7.33;;;5.47;;
26780;SDS011;14366;49.184;8.054;2023-08-24T20:00:16;9.10;;;5.30;;
26780;SDS011;14366;49.184;8.054;2023-08-24T20:10:52;8.20;;;5.60;;
26780;SDS011;14366;49.184;8.054;2023-08-24T20:21:29;6.10;;;5.50;;
26780;SDS011;14366;49.184;8.054;2023-08-24T20:32:05;10.00;;;5.70;;
26780;SDS011;14366;49.184;8.054;2023-08-24T20:37:42;7.45;;;5.50;;
26780;SDS011;14366;49.184;8.054;2023-08-24T20:43:16;7.67;;;5.27;;
26780;SDS011;14366;49.184;8.054;2023-08-24T20:48:51;6.83;;;5.33;;
26780;SDS011;14366;49.184;8.054;2023-08-24T20:59:29;6.47;;;5.28;;
26780;SDS011;14366;49.184;8.054;2023-08-24T21:10:05;6.25;;;5.00;;
26780;SDS011;14366;49.184;8.054;2023-08-24T21:20:42;5.37;;;4.78;;
26780;SDS011;14366;49.184;8.054;2023-08-24T21:26:13;5.82;;;4.72;;
26780;SDS011;14366;49.184;8.054;2023-08-24T21:31:33;5.05;;;4.60;;
26780;SDS011;14366;49.184;8.054;2023-08-24T21:41:57;5.18;;;4.37;;
26780;SDS011;14366;49.184;8.054;2023-08-24T21:47:29;4.85;;;4.35;;
26780;SDS011;14366;49.184;8.054;2023-08-24T21:52:49;9.63;;;5.10;;
26780;SDS011;14366;49.184;8.054;2023-08-24T21:58:27;5.50;;;4.32;;
26780;SDS011;14366;49.184;8.054;2023-08-24T22:04:01;6.35;;;4.50;;
26780;SDS011;14366;49.184;8.054;2023-08-24T22:09:36;7.10;;;4.75;;
26780;SDS011;14366;49.184;8.054;2023-08-24T22:15:13;5.05;;;4.55;;
26780;SDS011;14366;49.184;8.054;2023-08-24T22:20:48;6.57;;;4.60;;
26780;SDS011;14366;49.184;8.054;2023-08-24T22:26:23;7.78;;;4.97;;
26780;SDS011;14366;49.184;8.054;2023-08-24T22:32:00;9.27;;;4.00;;
26780;SDS011;14366;49.184;8.054;2023-08-24T22:37:31;5.32;;;4.40;;
26780;SDS011;14366;49.184;8.054;2023-08-24T22:42:51;5.70;;;4.47;;
26780;SDS011;14366;49.184;8.054;2023-08-24T22:48:13;6.15;;;4.85;;
26780;SDS011;14366;49.184;8.054;2023-08-24T22:53:46;5.47;;;4.70;;
26780;SDS011;14366;49.184;8.054;2023-08-24T22:59:06;6.85;;;4.35;;
26780;SDS011;14366;49.184;8.054;2023-08-24T23:04:29;7.60;;;5.68;;
26780;SDS011;14366;49.184;8.054;2023-08-24T23:10:04;5.96;;;4.70;;
26780;SDS011;14366;49.184;8.054;2023-08-24T23:15:38;6.60;;;5.30;;
26780;SDS011;14366;49.184;8.054;2023-08-24T23:21:14;6.55;;;5.00;;
26780;SDS011;14366;49.184;8.054;2023-08-24T23:26:49;6.70;;;4.50;;
26780;SDS011;14366;49.184;8.054;2023-08-24T23:32:24;8.90;;;5.70;;
26780;SDS011;14366;49.184;8.054;2023-08-24T23:38:00;6.10;;;4.30;;
26780;SDS011;14366;49.184;8.054;2023-08-24T23:43:35;4.50;;;4.10;;
26780;SDS011;14366;49.184;8.054;2023-08-24T23:49:10;6.00;;;4.60;;
26780;SDS011;14366;49.184;8.054;2023-08-24T23:54:46;9.40;;;4.75;;
